Time,TemperatureF,DewpointF,PressureIn,WindDirection,WindDirectionDegrees,WindSpeedMPH,WindSpeedGustMPH,Humidity,HourlyPrecipIn,Conditions,Clouds,dailyrainin,SoftwareType,DateUTC
2013-05-01 00:01:00,41.7,31.9,30.20,WNW,298,0.0,0.0,68,0.00,,,0.00,VWS V14.01,2013-05-01 04:01:00,
2013-05-01 00:11:00,41.6,32.9,30.20,WNW,298,0.0,0.0,71,0.00,,,0.00,VWS V14.01,2013-05-01 04:11:00,
2013-05-01 00:21:00,41.5,31.7,30.20,WNW,298,0.0,0.0,68,0.00,,,0.00,VWS V14.01,2013-05-01 04:21:00,
2013-05-01 00:31:00,41.4,32.4,30.21,WNW,298,0.0,0.0,70,0.00,,,0.00,VWS V14.01,2013-05-01 04:31:00,
2013-05-01 00:41:00,39.9,30.9,30.21,WNW,298,0.0,1.0,70,0.00,,,0.00,VWS V14.01,2013-05-01 04:41:00,
2013-05-01 00:51:00,39.3,30.7,30.20,WNW,298,0.0,0.0,71,0.00,,,0.00,VWS V14.01,2013-05-01 04:51:00,
2013-05-01 01:01:00,39.2,31.3,30.20,WNW,298,0.0,0.0,73,0.00,,,0.00,VWS V14.01,2013-05-01 05:01:00,
2013-05-01 01:11:00,39.3,31.4,30.20,WNW,298,0.0,0.0,73,0.00,,,0.00,VWS V14.01,2013-05-01 05:11:00,
2013-05-01 01:21:00,39.0,30.8,30.20,WNW,298,0.0,0.0,72,0.00,,,0.00,VWS V14.01,2013-05-01 05:21:00,
2013-05-01 01:31:00,38.9,31.7,30.20,WNW,298,0.0,0.0,75,0.00,,,0.00,VWS V14.01,2013-05-01 05:31:00,
2013-05-01 01:41:00,39.1,31.9,30.20,WNW,298,0.0,0.0,75,0.00,,,0.00,VWS V14.01,2013-05-01 05:41:00,
2013-05-01 01:51:00,39.0,30.8,30.20,WNW,298,0.0,0.0,72,0.00,,,0.00,VWS V14.01,2013-05-01 05:51:00,
2013-05-01 02:01:00,38.5,30.6,30.21,WNW,298,0.0,0.0,73,0.00,,,0.00,VWS V14.01,2013-05-01 06:01:00,
2013-05-01 02:11:00,38.2,30.7,30.21,WNW,298,0.0,1.0,74,0.00,,,0.00,VWS V14.01,2013-05-01 06:11:00,
2013-05-01 02:21:00,38.0,31.1,30.21,WNW,298,0.0,0.0,76,0.00,,,0.00,VWS V14.01,2013-05-01 06:21:00,
2013-05-01 02:31:00,37.6,30.4,30.21,WNW,298,0.0,1.0,75,0.00,,,0.00,VWS V14.01,2013-05-01 06:31:00,
2013-05-01 02:41:00,37.0,30.5,30.21,WNW,298,0.0,0.0,77,0.00,,,0.00,VWS V14.01,2013-05-01 06:41:00,
2013-05-01 02:51:00,37.1,30.6,30.22,WNW,298,0.0,0.0,77,0.00,,,0.00,VWS V14.01,2013-05-01 06:51:00,
2013-05-01 03:01:00,37.3,30.1,30.22,WNW,298,0.0,1.0,75,0.00,,,0.00,VWS V14.01,2013-05-01 07:01:00,
2013-05-01 03:11:00,37.3,31.1,30.22,WNW,298,0.0,0.0,78,0.00,,,0.00,VWS V14.01,2013-05-01 07:11:00,
2013-05-01 03:21:00,37.2,30.7,30.22,WNW,298,0.0,0.0,77,0.00,,,0.00,VWS V14.01,2013-05-01 07:21:00,
2013-05-01 03:31:00,37.1,30.9,30.22,WNW,298,0.0,0.0,78,0.00,,,0.00,VWS V14.01,2013-05-01 07:31:00,
2013-05-01 03:41:00,36.9,30.7,30.22,WNW,298,0.0,1.0,78,0.00,,,0.00,VWS V14.01,2013-05-01 07:41:00,
2013-05-01 03:51:00,36.8,31.8,30.22,WNW,298,0.0,1.0,82,0.00,,,0.00,VWS V14.01,2013-05-01 07:51:00,
2013-05-01 04:01:00,36.6,31.9,30.23,WNW,298,0.0,1.0,83,0.00,,,0.00,VWS V14.01,2013-05-01 08:01:00,
2013-05-01 04:11:00,36.4,31.4,30.23,WNW,298,1.0,1.0,82,0.00,,,0.00,VWS V14.01,2013-05-01 08:11:00,
2013-05-01 04:21:00,36.1,30.8,30.24,WNW,298,0.0,1.0,81,0.00,,,0.00,VWS V14.01,2013-05-01 08:21:00,
2013-05-01 04:31:00,36.2,31.2,30.24,WNW,298,0.0,0.0,82,0.00,,,0.00,VWS V14.01,2013-05-01 08:31:00,
2013-05-01 04:41:00,36.3,30.7,30.24,WNW,298,0.0,0.0,80,0.00,,,0.00,VWS V14.01,2013-05-01 08:41:00,
2013-05-01 04:51:00,36.1,30.8,30.24,WNW,298,0.0,1.0,81,0.00,,,0.00,VWS V14.01,2013-05-01 08:51:00,
2013-05-01 05:01:00,35.9,31.8,30.24,WNW,298,0.0,1.0,85,0.00,,,0.00,VWS V14.01,2013-05-01 09:01:00,
2013-05-01 05:11:00,35.6,31.8,30.24,WNW,298,0.0,1.0,86,0.00,,,0.00,VWS V14.01,2013-05-01 09:11:00,
2013-05-01 05:21:00,35.3,31.5,30.25,WNW,298,0.0,1.0,86,0.00,,,0.00,VWS V14.01,2013-05-01 09:21:00,
2013-05-01 05:31:00,35.2,31.7,30.25,WNW,298,1.0,2.0,87,0.00,,,0.00,VWS V14.01,2013-05-01 09:31:00,
2013-05-01 05:41:00,34.8,31.0,30.25,WNW,298,0.0,1.0,86,0.00,,,0.00,VWS V14.01,2013-05-01 09:41:00,
2013-05-01 05:51:00,34.9,31.7,30.25,WNW,298,0.0,0.0,88,0.00,,,0.00,VWS V14.01,2013-05-01 09:51:00,
2013-05-01 06:01:00,35.0,31.8,30.25,WNW,298,0.0,1.0,88,0.00,,,0.00,VWS V14.01,2013-05-01 10:01:00,
2013-05-01 06:11:00,35.2,31.7,30.25,WNW,298,0.0,1.0,87,0.00,,,0.00,VWS V14.01,2013-05-01 10:11:00,
2013-05-01 06:21:00,35.5,32.6,30.26,WNW,298,0.0,1.0,89,0.00,,,0.00,VWS V14.01,2013-05-01 10:21:00,
2013-05-01 06:31:00,36.0,33.1,30.27,WNW,298,0.0,1.0,89,0.00,,,0.00,VWS V14.01,2013-05-01 10:31:00,
2013-05-01 06:41:00,36.6,34.5,30.27,WNW,298,0.0,1.0,92,0.00,,,0.00,VWS V14.01,2013-05-01 10:41:00,
2013-05-01 06:51:00,37.3,34.4,30.27,WNW,298,0.0,1.0,89,0.00,,,0.00,VWS V14.01,2013-05-01 10:51:00,
2013-05-01 07:01:00,38.0,35.3,30.28,WNW,298,1.0,1.0,90,0.00,,,0.00,VWS V14.01,2013-05-01 11:01:00,
2013-05-01 07:11:00,39.0,35.8,30.28,WNW,298,0.0,1.0,88,0.00,,,0.00,VWS V14.01,2013-05-01 11:11:00,
2013-05-01 07:21:00,40.4,36.8,30.28,WNW,298,0.0,2.0,87,0.00,,,0.00,VWS V14.01,2013-05-01 11:21:00,
2013-05-01 07:31:00,41.6,37.1,30.29,WNW,298,0.0,1.0,84,0.00,,,0.00,VWS V14.01,2013-05-01 11:31:00,
2013-05-01 07:41:00,43.0,37.6,30.29,WNW,298,1.0,2.0,81,0.00,,,0.00,VWS V14.01,2013-05-01 11:41:00,
2013-05-01 07:51:00,44.6,37.8,30.29,WNW,298,0.0,2.0,77,0.00,,,0.00,VWS V14.01,2013-05-01 11:51:00,
2013-05-01 08:01:00,46.1,38.6,30.29,WNW,298,1.0,2.0,75,0.00,,,0.00,VWS V14.01,2013-05-01 12:01:00,
2013-05-01 08:11:00,47.4,39.9,30.29,WNW,298,0.0,2.0,75,0.00,,,0.00,VWS V14.01,2013-05-01 12:11:00,
2013-05-01 08:21:00,48.7,40.5,30.29,WNW,298,2.0,2.0,73,0.00,,,0.00,VWS V14.01,2013-05-01 12:21:00,
2013-05-01 08:31:00,50.0,41.7,30.29,WNW,296,1.0,3.0,73,0.00,,,0.00,VWS V14.01,2013-05-01 12:31:00,
2013-05-01 08:41:00,51.1,42.0,30.29,NE,34,0.0,3.0,71,0.00,,,0.00,VWS V14.01,2013-05-01 12:41:00,
2013-05-01 08:51:00,52.2,42.3,30.29,South,185,2.0,3.0,69,0.00,,,0.00,VWS V14.01,2013-05-01 12:51:00,
2013-05-01 09:01:00,53.1,43.2,30.29,East,80,1.0,4.0,69,0.00,,,0.00,VWS V14.01,2013-05-01 13:01:00,
2013-05-01 09:11:00,54.2,43.5,30.29,NE,34,1.0,4.0,67,0.00,,,0.00,VWS V14.01,2013-05-01 13:11:00,
2013-05-01 09:21:00,55.0,44.3,30.30,NW,309,0.0,4.0,67,0.00,,,0.00,VWS V14.01,2013-05-01 13:21:00,
2013-05-01 09:31:00,55.7,45.3,30.30,NW,309,0.0,3.0,68,0.00,,,0.00,VWS V14.01,2013-05-01 13:31:00,
2013-05-01 09:41:00,56.4,44.8,30.30,NNE,25,2.0,4.0,65,0.00,,,0.00,VWS V14.01,2013-05-01 13:41:00,
2013-05-01 09:51:00,57.2,45.6,30.30,NNW,348,3.0,4.0,65,0.00,,,0.00,VWS V14.01,2013-05-01 13:51:00,
2013-05-01 10:01:00,57.9,45.8,30.30,North,349,2.0,4.0,64,0.00,,,0.00,VWS V14.01,2013-05-01 14:01:00,
2013-05-01 10:11:00,58.5,46.0,30.30,NE,34,3.0,3.0,63,0.00,,,0.00,VWS V14.01,2013-05-01 14:11:00,
2013-05-01 10:21:00,59.5,45.2,30.30,NE,41,1.0,5.0,59,0.00,,,0.00,VWS V14.01,2013-05-01 14:21:00,
2013-05-01 10:31:00,60.2,45.4,30.31,ENE,65,1.0,5.0,58,0.00,,,0.00,VWS V14.01,2013-05-01 14:31:00,
2013-05-01 10:41:00,60.5,45.2,30.31,NE,53,0.0,5.0,57,0.00,,,0.00,VWS V14.01,2013-05-01 14:41:00,
2013-05-01 10:51:00,60.7,45.4,30.31,NE,44,2.0,4.0,57,0.00,,,0.00,VWS V14.01,2013-05-01 14:51:00,
2013-05-01 11:01:00,60.8,45.5,30.31,NNE,26,4.0,4.0,57,0.00,,,0.00,VWS V14.01,2013-05-01 15:01:00,
2013-05-01 11:11:00,61.0,44.7,30.31,WNW,286,4.0,5.0,55,0.00,,,0.00,VWS V14.01,2013-05-01 15:11:00,
2013-05-01 11:21:00,61.5,45.7,30.31,NNE,33,1.0,5.0,56,0.00,,,0.00,VWS V14.01,2013-05-01 15:21:00,
2013-05-01 11:31:00,61.8,44.5,30.31,NE,40,1.0,6.0,53,0.00,,,0.00,VWS V14.01,2013-05-01 15:31:00,
2013-05-01 11:41:00,62.0,45.7,30.31,NNE,15,2.0,4.0,55,0.00,,,0.00,VWS V14.01,2013-05-01 15:41:00,
2013-05-01 11:51:00,62.5,47.1,30.31,NNE,32,1.0,4.0,57,0.00,,,0.00,VWS V14.01,2013-05-01 15:51:00,
2013-05-01 12:01:00,63.1,48.1,30.30,NNW,346,2.0,4.0,58,0.00,,,0.00,VWS V14.01,2013-05-01 16:01:00,
2013-05-01 12:11:00,64.3,46.8,30.30,NNE,30,1.0,5.0,53,0.00,,,0.00,VWS V14.01,2013-05-01 16:11:00,
2013-05-01 12:21:00,64.7,48.7,30.30,North,360,1.0,5.0,56,0.00,,,0.00,VWS V14.01,2013-05-01 16:21:00,
2013-05-01 12:31:00,64.6,47.6,30.30,ENE,60,2.0,5.0,54,0.00,,,0.00,VWS V14.01,2013-05-01 16:31:00,
2013-05-01 12:41:00,64.1,48.6,30.30,North,5,2.0,5.0,57,0.00,,,0.00,VWS V14.01,2013-05-01 16:41:00,
2013-05-01 12:51:00,64.8,49.7,30.30,South,190,2.0,5.0,58,0.00,,,0.00,VWS V14.01,2013-05-01 16:51:00,
2013-05-01 13:01:00,65.5,50.3,30.30,South,191,2.0,4.0,58,0.00,,,0.00,VWS V14.01,2013-05-01 17:01:00,
2013-05-01 13:11:00,65.4,50.2,30.30,NNW,342,1.0,6.0,58,0.00,,,0.00,VWS V14.01,2013-05-01 17:11:00,
2013-05-01 13:21:00,65.6,48.5,30.30,NNE,13,3.0,5.0,54,0.00,,,0.00,VWS V14.01,2013-05-01 17:21:00,
2013-05-01 13:31:00,65.6,48.5,30.30,NNE,18,1.0,6.0,54,0.00,,,0.00,VWS V14.01,2013-05-01 17:31:00,
2013-05-01 13:41:00,65.8,47.7,30.30,NNE,20,1.0,5.0,52,0.00,,,0.00,VWS V14.01,2013-05-01 17:41:00,
2013-05-01 13:51:00,65.8,49.2,30.30,WNW,296,2.0,5.0,55,0.00,,,0.00,VWS V14.01,2013-05-01 17:51:00,
2013-05-01 14:01:00,65.6,49.5,30.30,SSW,199,4.0,7.0,56,0.00,,,0.00,VWS V14.01,2013-05-01 18:01:00,
2013-05-01 14:11:00,65.8,50.6,30.30,NW,309,1.0,5.0,58,0.00,,,0.00,VWS V14.01,2013-05-01 18:11:00,
2013-05-01 14:21:00,65.8,50.2,30.30,North,355,1.0,9.0,57,0.00,,,0.00,VWS V14.01,2013-05-01 18:21:00,
2013-05-01 14:31:00,66.0,49.4,30.30,West,271,2.0,6.0,55,0.00,,,0.00,VWS V14.01,2013-05-01 18:31:00,
2013-05-01 14:41:00,66.0,47.9,30.30,NNW,337,3.0,4.0,52,0.00,,,0.00,VWS V14.01,2013-05-01 18:41:00,
2013-05-01 14:51:00,65.8,46.7,30.30,North,11,1.0,7.0,50,0.00,,,0.00,VWS V14.01,2013-05-01 18:51:00,
2013-05-01 15:01:00,65.4,46.3,30.30,NNE,27,3.0,6.0,50,0.00,,,0.00,VWS V14.01,2013-05-01 19:01:00,
2013-05-01 15:11:00,65.6,44.8,30.30,NNE,23,3.0,6.0,47,0.00,,,0.00,VWS V14.01,2013-05-01 19:11:00,
2013-05-01 15:21:00,65.4,46.8,30.30,North,9,4.0,6.0,51,0.00,,,0.00,VWS V14.01,2013-05-01 19:21:00,
2013-05-01 15:31:00,65.8,49.2,30.30,NNE,23,1.0,5.0,55,0.00,,,0.00,VWS V14.01,2013-05-01 19:31:00,
2013-05-01 15:41:00,66.3,49.2,30.30,North,5,2.0,5.0,54,0.00,,,0.00,VWS V14.01,2013-05-01 19:41:00,
2013-05-01 15:51:00,66.5,49.8,30.30,WNW,290,1.0,5.0,55,0.00,,,0.00,VWS V14.01,2013-05-01 19:51:00,
2013-05-01 16:01:00,66.6,50.4,30.30,NW,318,2.0,5.0,56,0.00,,,0.00,VWS V14.01,2013-05-01 20:01:00,
2013-05-01 16:11:00,66.5,50.8,30.30,NW,319,2.0,6.0,57,0.00,,,0.00,VWS V14.01,2013-05-01 20:11:00,
2013-05-01 16:21:00,66.8,50.6,30.30,NNW,333,3.0,7.0,56,0.00,,,0.00,VWS V14.01,2013-05-01 20:21:00,
2013-05-01 16:31:00,67.6,49.4,30.30,NNW,348,1.0,6.0,52,0.00,,,0.00,VWS V14.01,2013-05-01 20:31:00,
2013-05-01 16:41:00,67.4,48.1,30.30,NNW,341,1.0,6.0,50,0.00,,,0.00,VWS V14.01,2013-05-01 20:41:00,
2013-05-01 16:51:00,67.7,48.9,30.30,NNW,343,2.0,4.0,51,0.00,,,0.00,VWS V14.01,2013-05-01 20:51:00,
2013-05-01 17:01:00,67.5,48.8,30.30,NW,311,3.0,6.0,51,0.00,,,0.00,VWS V14.01,2013-05-01 21:01:00,
2013-05-01 17:11:00,67.5,47.7,30.30,North,355,2.0,6.0,49,0.00,,,0.00,VWS V14.01,2013-05-01 21:11:00,
2013-05-01 17:21:00,66.4,47.2,30.30,North,355,2.0,5.0,50,0.00,,,0.00,VWS V14.01,2013-05-01 21:21:00,
2013-05-01 17:31:00,66.5,47.8,30.31,North,355,3.0,4.0,51,0.00,,,0.00,VWS V14.01,2013-05-01 21:31:00,
2013-05-01 17:41:00,66.2,47.6,30.31,North,5,4.0,5.0,51,0.00,,,0.00,VWS V14.01,2013-05-01 21:41:00,
2013-05-01 17:51:00,66.0,46.8,30.31,North,9,1.0,5.0,50,0.00,,,0.00,VWS V14.01,2013-05-01 21:51:00,
2013-05-01 18:01:00,65.5,46.4,30.32,WNW,296,0.0,4.0,50,0.00,,,0.00,VWS V14.01,2013-05-01 22:01:00,
2013-05-01 18:11:00,64.5,46.0,30.32,NE,34,1.0,3.0,51,0.00,,,0.00,VWS V14.01,2013-05-01 22:11:00,
2013-05-01 18:21:00,64.7,46.2,30.32,NNE,23,1.0,4.0,51,0.00,,,0.00,VWS V14.01,2013-05-01 22:21:00,
2013-05-01 18:31:00,63.3,45.4,30.32,NNE,23,1.0,3.0,52,0.00,,,0.00,VWS V14.01,2013-05-01 22:31:00,
2013-05-01 18:41:00,60.9,45.1,30.32,NNE,23,1.0,3.0,56,0.00,,,0.00,VWS V14.01,2013-05-01 22:41:00,
2013-05-01 18:51:00,60.2,44.9,30.32,NNE,23,2.0,3.0,57,0.00,,,0.00,VWS V14.01,2013-05-01 22:51:00,
2013-05-01 19:01:00,60.1,44.4,30.32,NNE,23,1.0,3.0,56,0.00,,,0.00,VWS V14.01,2013-05-01 23:01:00,
2013-05-01 19:11:00,59.0,44.3,30.32,NNE,23,1.0,3.0,58,0.00,,,0.00,VWS V14.01,2013-05-01 23:11:00,
2013-05-01 19:21:00,58.2,44.0,30.32,NNE,23,0.0,3.0,59,0.00,,,0.00,VWS V14.01,2013-05-01 23:21:00,
2013-05-01 19:31:00,57.1,43.8,30.32,NNE,23,1.0,2.0,61,0.00,,,0.00,VWS V14.01,2013-05-01 23:31:00,
2013-05-01 19:41:00,56.0,43.6,30.32,NNE,23,0.0,1.0,63,0.00,,,0.00,VWS V14.01,2013-05-01 23:41:00,
2013-05-01 19:51:00,54.8,43.7,30.33,NNE,23,0.0,1.0,66,0.00,,,0.00,VWS V14.01,2013-05-01 23:51:00,
2013-05-01 20:01:00,54.3,43.6,30.33,NNE,23,0.0,0.0,67,0.00,,,0.00,VWS V14.01,2013-05-02 00:01:00,
2013-05-01 20:11:00,53.7,43.4,30.33,NNE,23,0.0,1.0,68,0.00,,,0.00,VWS V14.01,2013-05-02 00:11:00,
2013-05-01 20:21:00,53.1,42.8,30.33,NNE,23,0.0,1.0,68,0.00,,,0.00,VWS V14.01,2013-05-02 00:21:00,
2013-05-01 20:31:00,52.1,42.6,30.34,NNE,23,0.0,0.0,70,0.00,,,0.00,VWS V14.01,2013-05-02 00:31:00,
2013-05-01 20:41:00,51.4,42.3,30.34,NNE,23,0.0,1.0,71,0.00,,,0.00,VWS V14.01,2013-05-02 00:41:00,
2013-05-01 20:51:00,50.6,42.3,30.34,NNE,23,0.0,0.0,73,0.00,,,0.00,VWS V14.01,2013-05-02 00:51:00,
2013-05-01 21:01:00,50.3,41.6,30.35,NNE,23,0.0,0.0,72,0.00,,,0.00,VWS V14.01,2013-05-02 01:01:00,
2013-05-01 21:11:00,50.0,42.4,30.35,NNE,23,0.0,0.0,75,0.00,,,0.00,VWS V14.01,2013-05-02 01:11:00,
2013-05-01 21:21:00,49.4,42.2,30.35,NNE,23,0.0,1.0,76,0.00,,,0.00,VWS V14.01,2013-05-02 01:21:00,
2013-05-01 21:31:00,49.0,41.4,30.35,NNE,23,0.0,1.0,75,0.00,,,0.00,VWS V14.01,2013-05-02 01:31:00,
2013-05-01 21:41:00,49.0,41.1,30.35,NNE,23,0.0,0.0,74,0.00,,,0.00,VWS V14.01,2013-05-02 01:41:00,
2013-05-01 21:51:00,49.2,42.3,30.35,NNE,23,0.0,0.0,77,0.00,,,0.00,VWS V14.01,2013-05-02 01:51:00,
2013-05-01 22:01:00,49.7,41.8,30.35,NNE,23,0.0,0.0,74,0.00,,,0.00,VWS V14.01,2013-05-02 02:01:00,
2013-05-01 22:11:00,49.9,42.3,30.35,NNE,23,0.0,0.0,75,0.00,,,0.00,VWS V14.01,2013-05-02 02:11:00,
2013-05-01 22:21:00,50.6,41.9,30.35,NNE,23,0.0,0.0,72,0.00,,,0.00,VWS V14.01,2013-05-02 02:21:00,
2013-05-01 22:31:00,49.6,41.3,30.34,NNE,23,0.0,0.0,73,0.00,,,0.00,VWS V14.01,2013-05-02 02:31:00,
2013-05-01 22:41:00,48.5,41.6,30.34,NNE,23,0.0,0.0,77,0.00,,,0.00,VWS V14.01,2013-05-02 02:41:00,
2013-05-01 22:51:00,47.6,41.1,30.34,NNE,23,0.0,0.0,78,0.00,,,0.00,VWS V14.01,2013-05-02 02:51:00,
2013-05-01 23:01:00,46.4,39.6,30.34,NNE,23,0.0,1.0,77,0.00,,,0.00,VWS V14.01,2013-05-02 03:01:00,
2013-05-01 23:11:00,45.3,40.1,30.34,NNE,23,0.0,1.0,82,0.00,,,0.00,VWS V14.01,2013-05-02 03:11:00,
2013-05-01 23:21:00,44.4,39.9,30.33,NNE,23,0.0,1.0,84,0.00,,,0.00,VWS V14.01,2013-05-02 03:21:00,
2013-05-01 23:31:00,44.1,39.0,30.33,NNE,23,0.0,0.0,82,0.00,,,0.00,VWS V14.01,2013-05-02 03:31:00,
2013-05-01 23:41:00,44.1,39.6,30.33,NNE,23,0.0,0.0,84,0.00,,,0.00,VWS V14.01,2013-05-02 03:41:00,
2013-05-01 23:51:00,43.8,39.0,30.33,NNE,23,0.0,1.0,83,0.00,,,0.00,VWS V14.01,2013-05-02 03:51:00,